createdAt,value
2022-10-05T00:00:14.770Z,100834.66
2022-10-05T00:01:02.525Z,100841.72
2022-10-05T00:01:49.428Z,100831.25
2022-10-05T00:02:36.332Z,100838.44
2022-10-05T00:03:25.316Z,100825.28
2022-10-05T00:04:18.779Z,100839.56
2022-10-05T00:05:29.823Z,100841.13
2022-10-05T00:06:16.443Z,100848.06
2022-10-05T00:07:19.083Z,100841.72
2022-10-05T00:08:15.457Z,100843.53
2022-10-05T00:09:02.246Z,100849.78
2022-10-05T00:10:02.905Z,100844.53
2022-10-05T00:10:50.042Z,100840.13
2022-10-05T00:11:37.161Z,100845.38
2022-10-05T00:12:24.755Z,100845.06
2022-10-05T00:13:23.904Z,100836.41
2022-10-05T00:14:24.441Z,100841.06
2022-10-05T00:15:13.500Z,100846.41
2022-10-05T00:16:15.633Z,100842.03
2022-10-05T00:17:04.802Z,100846.81
2022-10-05T00:17:51.649Z,100844.84
2022-10-05T00:18:38.890Z,100841.38
2022-10-05T00:19:33.946Z,100841.53
2022-10-05T00:20:24.186Z,100841.38
2022-10-05T00:21:24.024Z,100844.78
2022-10-05T00:22:17.105Z,100845.66
2022-10-05T00:23:08.466Z,100847.44
2022-10-05T00:23:57.298Z,100849.28
2022-10-05T00:24:44.804Z,100847.59
2022-10-05T00:25:31.482Z,100848.56
2022-10-05T00:26:26.172Z,100852.69
2022-10-05T00:27:23.005Z,100845.16
2022-10-05T00:28:28.238Z,100851.00
2022-10-05T00:29:22.081Z,100851.38
2022-10-05T00:30:17.343Z,100851.94
2022-10-05T00:31:18.579Z,100844.84
2022-10-05T00:32:05.459Z,100844.44
2022-10-05T00:32:57.279Z,100843.09
2022-10-05T00:33:46.432Z,100842.25
2022-10-05T00:34:34.319Z,100839.38
2022-10-05T00:35:21.148Z,100838.13
2022-10-05T00:36:08.321Z,100844.59
2022-10-05T00:36:55.053Z,100843.47
2022-10-05T00:37:42.164Z,100841.06
2022-10-05T00:38:28.929Z,100845.28
2022-10-05T00:39:15.722Z,100845.16
2022-10-05T00:40:04.018Z,100843.47
2022-10-05T00:41:09.266Z,100842.75
2022-10-05T00:42:30.758Z,100850.66
2022-10-05T00:44:00.992Z,100844.44
2022-10-05T00:44:55.235Z,100845.56
2022-10-05T00:45:56.981Z,100847.00
2022-10-05T00:46:55.670Z,100847.84
2022-10-05T00:47:59.118Z,100852.38
2022-10-05T00:48:59.919Z,100850.94
2022-10-05T00:50:05.303Z,100857.28
2022-10-05T00:51:42.547Z,100855.19
2022-10-05T00:52:41.864Z,100850.94
2022-10-05T00:53:46.440Z,100853.63
2022-10-05T00:54:49.748Z,100854.47
2022-10-05T00:55:36.386Z,100847.72
2022-10-05T00:57:11.026Z,100852.81
2022-10-05T00:58:37.908Z,100848.06
2022-10-05T00:59:51.910Z,100851.25
2022-10-05T01:01:17.982Z,100859.56
2022-10-05T01:02:23.567Z,100858.97
2022-10-05T01:03:33.231Z,100856.41
2022-10-05T01:04:49.678Z,100868.13
2022-10-05T01:05:57.716Z,100859.25
2022-10-05T01:06:44.607Z,100861.66
2022-10-05T01:07:52.570Z,100857.28
2022-10-05T01:09:02.786Z,100865.44
2022-10-05T01:10:27.834Z,100859.56
2022-10-05T01:11:36.349Z,100864.06
2022-10-05T01:12:49.780Z,100864.22
2022-10-05T01:13:48.743Z,100867.03
2022-10-05T01:14:55.899Z,100866.28
2022-10-05T01:15:47.373Z,100862.50
2022-10-05T01:16:59.899Z,100859.56
2022-10-05T01:17:52.010Z,100868.34
2022-10-05T01:18:45.530Z,100864.34
2022-10-05T01:19:41.078Z,100854.97
2022-10-05T01:20:39.633Z,100869.38
2022-10-05T01:21:27.507Z,100860.50
2022-10-05T01:22:26.360Z,100864.00
2022-10-05T01:23:51.794Z,100864.72
2022-10-05T01:24:59.926Z,100852.88
2022-10-05T01:25:58.580Z,100854.00
2022-10-05T01:27:24.018Z,100854.41
2022-10-05T01:28:16.569Z,100853.28
2022-10-05T01:29:11.953Z,100849.88
2022-10-05T01:30:03.776Z,100852.69
2022-10-05T01:30:50.449Z,100862.56
2022-10-05T01:31:50.068Z,100857.22
2022-10-05T01:33:04.548Z,100856.81
2022-10-05T01:34:31.981Z,100859.25
2022-10-05T01:35:37.741Z,100858.38
2022-10-05T01:36:42.960Z,100860.72
2022-10-05T01:37:39.021Z,100862.44
2022-10-05T01:38:46.778Z,100852.28
2022-10-05T01:39:44.277Z,100849.75
2022-10-05T01:40:44.197Z,100851.31
2022-10-05T01:41:52.476Z,100848.88
2022-10-05T01:43:04.833Z,100857.66
2022-10-05T01:43:58.067Z,100854.00
2022-10-05T01:45:06.318Z,100857.53
2022-10-05T01:45:57.963Z,100863.63
2022-10-05T01:46:59.709Z,100850.34
2022-10-05T01:47:50.239Z,100853.16
2022-10-05T01:48:42.904Z,100855.44
2022-10-05T01:49:48.143Z,100846.72
2022-10-05T01:51:13.962Z,100852.50
2022-10-05T01:52:12.465Z,100853.28
2022-10-05T01:53:12.040Z,100842.69
2022-10-05T01:54:10.815Z,100849.03
2022-10-05T01:55:19.128Z,100845.25
2022-10-05T01:56:37.350Z,100849.38
2022-10-05T01:57:42.890Z,100842.03
2022-10-05T01:58:29.567Z,100849.50
2022-10-05T01:59:45.237Z,100841.66
2022-10-05T02:00:52.466Z,100845.56
2022-10-05T02:01:49.192Z,100844.59
2022-10-05T02:03:09.528Z,100839.16
2022-10-05T02:04:17.671Z,100844.97
2022-10-05T02:05:38.020Z,100835.25
2022-10-05T02:06:27.566Z,100839.88
2022-10-05T02:07:23.072Z,100850.22
2022-10-05T02:08:18.200Z,100835.25
2022-10-05T02:09:09.295Z,100840.31
2022-10-05T02:10:02.159Z,100843.16
2022-10-05T02:10:58.766Z,100840.22
2022-10-05T02:11:49.453Z,100845.12
2022-10-05T02:12:37.318Z,100844.00
2022-10-05T02:13:53.593Z,100846.09
2022-10-05T02:14:43.326Z,100844.53
2022-10-05T02:15:35.281Z,100845.47
2022-10-05T02:16:41.676Z,100847.31
2022-10-05T02:17:34.311Z,100852.56
2022-10-05T02:18:30.845Z,100848.75
2022-10-05T02:19:37.763Z,100847.66
2022-10-05T02:20:26.679Z,100851.72
2022-10-05T02:21:13.371Z,100839.56
2022-10-05T02:22:05.405Z,100843.19
2022-10-05T02:22:55.194Z,100841.50
2022-10-05T02:23:43.347Z,100838.84
2022-10-05T02:24:35.168Z,100834.44
2022-10-05T02:25:27.190Z,100834.44
2022-10-05T02:26:14.160Z,100833.34
2022-10-05T02:27:01.700Z,100842.81
2022-10-05T02:28:01.548Z,100842.25
2022-10-05T02:28:53.627Z,100838.72
2022-10-05T02:29:43.179Z,100837.72
2022-10-05T02:30:32.128Z,100847.19
2022-10-05T02:31:49.329Z,100838.03
2022-10-05T02:32:41.449Z,100841.72
2022-10-05T02:33:30.618Z,100833.91
2022-10-05T02:34:34.019Z,100833.09
2022-10-05T02:35:21.886Z,100839.16
2022-10-05T02:36:16.499Z,100827.00
2022-10-05T02:37:12.486Z,100824.19
2022-10-05T02:38:08.446Z,100825.88
2022-10-05T02:39:19.048Z,100815.16
2022-10-05T02:40:27.332Z,100817.41
2022-10-05T02:41:49.372Z,100816.87
2022-10-05T02:42:45.021Z,100810.06
2022-10-05T02:44:02.638Z,100806.69
2022-10-05T02:45:07.671Z,100802.03
2022-10-05T02:46:18.468Z,100801.19
2022-10-05T02:47:13.124Z,100815.16
2022-10-05T02:48:31.885Z,100810.78
2022-10-05T02:49:45.690Z,100799.78
2022-10-05T02:50:44.555Z,100804.44
2022-10-05T02:51:41.125Z,100798.22
2022-10-05T02:52:56.746Z,100798.22
2022-10-05T02:54:05.339Z,100793.59
2022-10-05T02:54:57.801Z,100788.63
2022-10-05T02:56:06.205Z,100787.78
2022-10-05T02:57:28.439Z,100797.41
2022-10-05T02:58:27.994Z,100791.44
2022-10-05T02:59:24.420Z,100794.84
2022-10-05T03:00:16.302Z,100793.28
2022-10-05T03:01:11.698Z,100789.47
2022-10-05T03:02:24.021Z,100791.31
2022-10-05T03:03:16.110Z,100785.69
2022-10-05T03:04:08.084Z,100791.62
2022-10-05T03:05:16.622Z,100787.13
2022-10-05T03:06:07.295Z,100788.44
2022-10-05T03:07:01.346Z,100794.75
2022-10-05T03:08:25.115Z,100795.63
2022-10-05T03:09:12.407Z,100790.13
2022-10-05T03:10:09.997Z,100788.66
2022-10-05T03:11:10.152Z,100799.16
2022-10-05T03:12:35.844Z,100795.63
2022-10-05T03:13:32.778Z,100796.34
2022-10-05T03:14:28.766Z,100793.06
2022-10-05T03:15:48.997Z,100798.44
2022-10-05T03:16:45.647Z,100791.94
2022-10-05T03:18:02.207Z,100794.50
2022-10-05T03:18:48.877Z,100794.34
2022-10-05T03:20:08.564Z,100791.09
2022-10-05T03:21:07.819Z,100788.56
2022-10-05T03:22:19.000Z,100789.28
2022-10-05T03:23:10.047Z,100791.00
2022-10-05T03:24:24.739Z,100791.66
2022-10-05T03:25:14.505Z,100792.06
2022-10-05T03:26:25.829Z,100786.31
2022-10-05T03:27:12.538Z,100795.06
2022-10-05T03:28:34.722Z,100792.28
2022-10-05T03:29:32.631Z,100795.06
2022-10-05T03:30:22.920Z,100792.53
2022-10-05T03:31:19.294Z,100800.19
2022-10-05T03:32:34.877Z,100796.50
2022-10-05T03:33:30.505Z,100802.59
2022-10-05T03:34:42.619Z,100802.03
2022-10-05T03:35:40.103Z,100802.16
2022-10-05T03:36:59.841Z,100810.31
2022-10-05T03:38:12.847Z,100810.59
2022-10-05T03:39:06.415Z,100821.16
2022-10-05T03:40:13.676Z,100826.09
2022-10-05T03:41:25.649Z,100824.72
2022-10-05T03:42:38.525Z,100830.81
2022-10-05T03:43:45.289Z,100819.06
2022-10-05T03:44:43.451Z,100820.91
2022-10-05T03:45:41.880Z,100825.88
2022-10-05T03:47:23.591Z,100821.75
2022-10-05T03:48:11.948Z,100819.19
2022-10-05T03:49:25.290Z,100819.34
2022-10-05T03:50:24.419Z,100815.69
2022-10-05T03:51:45.754Z,100804.13
2022-10-05T03:52:35.286Z,100813.13
2022-10-05T03:53:46.200Z,100808.03
2022-10-05T03:54:40.328Z,100805.06
2022-10-05T03:55:36.360Z,100804.38
2022-10-05T03:56:36.731Z,100800.72
2022-10-05T03:57:28.957Z,100801.56
2022-10-05T03:58:37.468Z,100801.97
2022-10-05T03:59:33.694Z,100800.84
2022-10-05T04:00:25.790Z,100800.84
2022-10-05T04:01:26.358Z,100798.16
2022-10-05T04:02:23.230Z,100798.88
2022-10-05T04:03:21.691Z,100792.53
2022-10-05T04:04:13.964Z,100799.59
2022-10-05T04:05:38.663Z,100790.00
2022-10-05T04:06:28.559Z,100800.31
2022-10-05T04:07:29.900Z,100798.34
2022-10-05T04:08:38.927Z,100791.31
2022-10-05T04:09:33.807Z,100794.69
2022-10-05T04:10:47.748Z,100797.22
2022-10-05T04:11:40.964Z,100793.97
2022-10-05T04:12:37.531Z,100795.53
2022-10-05T04:13:47.146Z,100795.97
2022-10-05T04:14:40.875Z,100792.59
2022-10-05T04:15:34.263Z,100794.16
2022-10-05T04:16:36.620Z,100794.16
2022-10-05T04:17:42.798Z,100799.84
2022-10-05T04:18:34.145Z,100798.00
2022-10-05T04:19:34.365Z,100797.53
2022-10-05T04:20:26.950Z,100797.53
2022-10-05T04:21:30.182Z,100803.19
2022-10-05T04:22:25.489Z,100800.63
2022-10-05T04:23:40.282Z,100794.03
2022-10-05T04:24:35.118Z,100798.25
2022-10-05T04:25:52.127Z,100796.44
2022-10-05T04:27:12.868Z,100791.09
2022-10-05T04:28:13.703Z,100791.09
2022-10-05T04:29:00.422Z,100785.00
2022-10-05T04:30:04.815Z,100791.22
2022-10-05T04:30:53.563Z,100788.97
2022-10-05T04:32:06.632Z,100785.56
2022-10-05T04:32:57.382Z,100790.81
2022-10-05T04:33:49.861Z,100799.25
2022-10-05T04:34:45.432Z,100799.97
2022-10-05T04:35:54.249Z,100801.09
2022-10-05T04:36:46.919Z,100796.03
2022-10-05T04:37:58.106Z,100799.97
2022-10-05T04:38:47.699Z,100801.12
2022-10-05T04:39:59.973Z,100795.94
2022-10-05T04:41:27.738Z,100797.41
2022-10-05T04:42:58.819Z,100795.44
2022-10-05T04:44:02.085Z,100797.00
2022-10-05T04:45:10.172Z,100792.78
2022-10-05T04:46:21.786Z,100794.62
2022-10-05T04:47:17.502Z,100789.25
2022-10-05T04:48:20.264Z,100784.47
2022-10-05T04:49:25.599Z,100786.44
2022-10-05T04:50:28.321Z,100789.56
2022-10-05T04:51:18.015Z,100782.75
2022-10-05T04:52:13.885Z,100789.25
2022-10-05T04:53:10.408Z,100791.53
2022-10-05T04:54:15.543Z,100788.97
2022-10-05T04:55:08.608Z,100788.59
2022-10-05T04:56:11.918Z,100799.44
2022-10-05T04:57:30.280Z,100798.31
2022-10-05T04:58:21.451Z,100799.87
2022-10-05T04:59:29.560Z,100798.75
2022-10-05T05:00:26.759Z,100796.94
2022-10-05T05:01:25.701Z,100798.38
2022-10-05T05:02:12.392Z,100792.03
2022-10-05T05:03:17.198Z,100799.53
2022-10-05T05:04:35.039Z,100786.13
2022-10-05T05:05:24.554Z,100787.81
2022-10-05T05:06:42.447Z,100780.03
2022-10-05T05:07:48.416Z,100784.03
2022-10-05T05:08:52.713Z,100784.16
2022-10-05T05:09:42.066Z,100778.66
2022-10-05T05:10:34.780Z,100784.88
2022-10-05T05:11:39.459Z,100774.97
2022-10-05T05:13:10.413Z,100781.19
2022-10-05T05:14:34.707Z,100777.25
2022-10-05T05:15:39.511Z,100774.84
2022-10-05T05:16:37.460Z,100773.28
2022-10-05T05:17:27.167Z,100775.41
2022-10-05T05:18:50.735Z,100783.75
2022-10-05T05:20:15.360Z,100788.97
2022-10-05T05:21:17.206Z,100786.56
2022-10-05T05:22:08.840Z,100792.91
2022-10-05T05:23:24.252Z,100795.78
2022-10-05T05:24:33.194Z,100790.00
2022-10-05T05:25:45.650Z,100787.62
2022-10-05T05:27:03.361Z,100789.59
2022-10-05T05:28:01.620Z,100795.66
2022-10-05T05:28:58.510Z,100802.47
2022-10-05T05:30:06.308Z,100803.19
2022-10-05T05:31:02.387Z,100799.50
2022-10-05T05:32:10.329Z,100803.19
2022-10-05T05:33:22.039Z,100801.66
2022-10-05T05:34:28.251Z,100810.06
2022-10-05T05:35:30.186Z,100809.75
2022-10-05T05:36:35.005Z,100817.81
2022-10-05T05:37:34.076Z,100816.28
2022-10-05T05:38:20.668Z,100811.62
2022-10-05T05:39:20.065Z,100816.00
2022-10-05T05:40:21.079Z,100811.22
2022-10-05T05:41:08.525Z,100815.59
2022-10-05T05:41:58.043Z,100820.69
2022-10-05T05:43:08.263Z,100813.91
2022-10-05T05:44:06.161Z,100819.72
2022-10-05T05:44:54.926Z,100820.28
2022-10-05T05:45:54.634Z,100820.84
2022-10-05T05:47:12.207Z,100823.81
2022-10-05T05:47:59.757Z,100818.72
2022-10-05T05:48:47.679Z,100815.47
2022-10-05T05:49:53.692Z,100824.38
2022-10-05T05:50:54.178Z,100818.59
2022-10-05T05:51:44.637Z,100816.75
2022-10-05T05:52:36.509Z,100813.50
2022-10-05T05:53:28.132Z,100819.16
2022-10-05T05:54:36.419Z,100821.28
2022-10-05T05:55:30.075Z,100828.47
2022-10-05T05:56:24.582Z,100822.28
2022-10-05T05:57:19.819Z,100828.06
2022-10-05T05:58:24.071Z,100823.97
2022-10-05T05:59:18.073Z,100826.09
2022-10-05T06:00:08.527Z,100822.56
2022-10-05T06:01:04.554Z,100829.19
2022-10-05T06:02:04.645Z,100823.56
2022-10-05T06:03:01.961Z,100828.78
2022-10-05T06:03:59.423Z,100827.94
2022-10-05T06:05:01.587Z,100831.31
2022-10-05T06:05:52.482Z,100833.44
2022-10-05T06:06:43.084Z,100830.47
2022-10-05T06:07:30.917Z,100835.28
2022-10-05T06:08:37.187Z,100829.31
2022-10-05T06:09:23.897Z,100836.38
2022-10-05T06:10:42.637Z,100844.31
2022-10-05T06:11:33.130Z,100836.38
2022-10-05T06:12:25.684Z,100842.19
2022-10-05T06:13:17.585Z,100852.81
2022-10-05T06:14:11.619Z,100847.13
2022-10-05T06:15:05.785Z,100853.09
2022-10-05T06:15:57.400Z,100853.09
2022-10-05T06:16:47.720Z,100853.78
2022-10-05T06:17:44.244Z,100856.31
2022-10-05T06:18:32.966Z,100857.59
2022-10-05T06:19:22.697Z,100862.53
2022-10-05T06:20:28.060Z,100863.09
2022-10-05T06:21:31.485Z,100869.59
2022-10-05T06:22:50.456Z,100874.13
2022-10-05T06:24:06.826Z,100873.81
2022-10-05T06:25:08.897Z,100888.22
2022-10-05T06:26:15.588Z,100889.50
2022-10-05T06:27:08.359Z,100899.00
2022-10-05T06:28:16.422Z,100897.38
2022-10-05T06:29:07.964Z,100902.06
2022-10-05T06:30:21.093Z,100898.75
2022-10-05T06:31:23.079Z,100898.16
2022-10-05T06:32:21.406Z,100892.34
2022-10-05T06:33:18.698Z,100889.59
2022-10-05T06:34:18.142Z,100885.03
2022-10-05T06:35:11.123Z,100886.16
2022-10-05T06:36:29.041Z,100887.38
2022-10-05T06:37:40.242Z,100877.72
2022-10-05T06:38:53.406Z,100879.94
2022-10-05T06:40:00.897Z,100880.22
2022-10-05T06:41:00.371Z,100887.84
2022-10-05T06:42:15.025Z,100885.84
2022-10-05T06:43:01.811Z,100896.16
2022-10-05T06:44:06.373Z,100892.62
2022-10-05T06:45:02.044Z,100896.84
2022-10-05T06:45:57.015Z,100895.41
2022-10-05T06:47:16.825Z,100900.19
2022-10-05T06:48:11.627Z,100899.72
2022-10-05T06:49:20.711Z,100893.56
2022-10-05T06:50:45.968Z,100893.63
2022-10-05T06:51:35.487Z,100903.97
2022-10-05T06:52:22.157Z,100897.50
2022-10-05T06:53:27.372Z,100898.84
2022-10-05T06:54:32.253Z,100896.69
2022-10-05T06:55:30.921Z,100901.16
2022-10-05T06:57:11.646Z,100903.41
2022-10-05T06:58:14.271Z,100908.22
2022-10-05T06:59:06.942Z,100903.91
2022-10-05T07:00:16.531Z,100901.47
2022-10-05T07:01:30.524Z,100897.94
2022-10-05T07:02:42.691Z,100902.75
2022-10-05T07:03:45.544Z,100897.59
2022-10-05T07:05:27.451Z,100905.75
2022-10-05T07:06:28.119Z,100901.59
2022-10-05T07:07:31.558Z,100902.50
2022-10-05T07:08:55.440Z,100901.00
2022-10-05T07:10:23.228Z,100896.62
2022-10-05T07:11:39.761Z,100898.84
2022-10-05T07:12:53.859Z,100887.91
2022-10-05T07:15:36.883Z,100897.72
2022-10-05T07:16:46.672Z,100895.38
2022-10-05T07:17:55.592Z,100893.81
2022-10-05T07:19:10.499Z,100891.25
2022-10-05T07:20:01.942Z,100891.94
2022-10-05T07:21:39.749Z,100891.72
2022-10-05T07:22:47.976Z,100895.78
2022-10-05T07:23:58.563Z,100892.47
2022-10-05T07:24:59.695Z,100886.66
2022-10-05T07:25:51.326Z,100873.72
2022-10-05T07:26:54.970Z,100872.34
2022-10-05T07:28:24.116Z,100880.50
2022-10-05T07:29:34.114Z,100876.19
2022-10-05T07:30:21.039Z,100879.53
2022-10-05T07:31:24.658Z,100884.87
2022-10-05T07:32:11.807Z,100888.09
2022-10-05T07:33:12.876Z,100895.00
2022-10-05T07:34:34.709Z,100889.41
2022-10-05T07:36:03.986Z,100897.34
2022-10-05T07:37:29.191Z,100894.53
2022-10-05T07:38:21.358Z,100900.94
2022-10-05T07:39:20.077Z,100903.22
2022-10-05T07:40:23.268Z,100901.34
2022-10-05T07:41:41.121Z,100895.56
2022-10-05T07:42:48.794Z,100896.91
2022-10-05T07:44:03.085Z,100893.81
2022-10-05T07:45:04.470Z,100892.94
2022-10-05T07:46:11.744Z,100890.00
2022-10-05T07:47:10.957Z,100891.81
2022-10-05T07:48:21.488Z,100885.81
2022-10-05T07:49:37.600Z,100888.84
2022-10-05T07:50:27.567Z,100889.03
2022-10-05T07:51:32.201Z,100888.66
2022-10-05T07:52:38.688Z,100882.66
2022-10-05T07:53:31.530Z,100881.06
2022-10-05T07:54:40.658Z,100880.87
2022-10-05T07:55:33.694Z,100878.28
2022-10-05T07:56:32.135Z,100870.03
2022-10-05T07:57:43.782Z,100878.63
2022-10-05T07:58:43.756Z,100875.62
2022-10-05T07:59:56.706Z,100873.59
2022-10-05T08:00:43.452Z,100864.84
2022-10-05T08:01:33.333Z,100871.13
2022-10-05T08:02:26.261Z,100875.91
2022-10-05T08:03:28.374Z,100874.31
2022-10-05T08:04:20.453Z,100883.22
2022-10-05T08:05:16.343Z,100864.06
2022-10-05T08:06:05.948Z,100875.62
2022-10-05T08:06:59.588Z,100867.63
2022-10-05T08:07:47.406Z,100871.47
2022-10-05T08:08:54.233Z,100870.97
2022-10-05T08:10:04.076Z,100864.59
2022-10-05T08:11:11.927Z,100867.09
2022-10-05T08:12:24.781Z,100866.72
2022-10-05T08:13:47.511Z,100859.22
2022-10-05T08:14:52.983Z,100854.63
2022-10-05T08:15:46.158Z,100858.16
2022-10-05T08:16:38.154Z,100855.38
2022-10-05T08:17:55.077Z,100848.97
2022-10-05T08:18:59.434Z,100847.31
2022-10-05T08:20:03.782Z,100843.59
2022-10-05T08:20:58.487Z,100841.03
2022-10-05T08:21:50.842Z,100850.50
2022-10-05T08:22:45.937Z,100848.91
2022-10-05T08:23:43.648Z,100845.84
2022-10-05T08:24:41.720Z,100851.94
2022-10-05T08:26:09.182Z,100856.78
2022-10-05T08:27:07.172Z,100858.53
2022-10-05T08:28:03.753Z,100864.69
2022-10-05T08:29:01.190Z,100860.16
2022-10-05T08:30:09.800Z,100861.19
2022-10-05T08:31:04.845Z,100863.13
2022-10-05T08:31:56.520Z,100861.25
2022-10-05T08:33:02.484Z,100860.41
2022-10-05T08:33:58.878Z,100864.41
2022-10-05T08:35:12.120Z,100863.41
2022-10-05T08:36:07.339Z,100860.53
2022-10-05T08:37:07.257Z,100858.22
2022-10-05T08:37:54.606Z,100859.09
2022-10-05T08:38:42.334Z,100858.47
2022-10-05T08:39:41.125Z,100863.91
2022-10-05T08:40:59.856Z,100868.94
2022-10-05T08:42:18.726Z,100862.44
2022-10-05T08:43:35.341Z,100852.62
2022-10-05T08:44:46.400Z,100857.31
2022-10-05T08:45:42.825Z,100857.37
2022-10-05T08:47:05.600Z,100862.88
2022-10-05T08:47:52.267Z,100861.81
2022-10-05T08:49:01.184Z,100863.56
2022-10-05T08:50:03.196Z,100866.12
2022-10-05T08:51:24.152Z,100874.34
2022-10-05T08:52:26.306Z,100870.66
2022-10-05T08:53:19.642Z,100867.09
2022-10-05T08:54:24.807Z,100866.69
2022-10-05T08:55:26.960Z,100868.78
2022-10-05T08:56:35.101Z,100871.78
2022-10-05T08:57:40.199Z,100868.63
2022-10-05T08:58:53.588Z,100874.31
2022-10-05T08:59:49.890Z,100865.53
2022-10-05T09:00:52.091Z,100862.38
2022-10-05T09:02:20.203Z,100865.13
2022-10-05T09:03:34.435Z,100869.12
2022-10-05T09:04:55.287Z,100868.50
2022-10-05T09:06:23.422Z,100864.97
2022-10-05T09:07:18.347Z,100862.28
2022-10-05T09:08:22.303Z,100867.94
2022-10-05T09:09:44.858Z,100858.28
2022-10-05T09:11:04.005Z,100865.41
2022-10-05T09:12:07.105Z,100860.59
2022-10-05T09:13:15.640Z,100864.37
2022-10-05T09:14:20.324Z,100873.41
2022-10-05T09:15:30.722Z,100868.34
2022-10-05T09:16:27.185Z,100870.06
2022-10-05T09:17:28.670Z,100865.22
2022-10-05T09:18:30.712Z,100855.34
2022-10-05T09:19:32.725Z,100861.22
2022-10-05T09:20:47.618Z,100864.81
2022-10-05T09:21:44.782Z,100859.97
2022-10-05T09:22:55.677Z,100858.28
2022-10-05T09:23:44.737Z,100859.09
2022-10-05T09:24:57.463Z,100859.72
2022-10-05T09:25:57.513Z,100850.63
2022-10-05T09:26:46.583Z,100851.06
2022-10-05T09:27:36.898Z,100854.63
2022-10-05T09:28:33.233Z,100862.44
2022-10-05T09:29:38.798Z,100858.41
2022-10-05T09:30:37.481Z,100863.22
2022-10-05T09:31:58.337Z,100850.19
2022-10-05T09:33:13.838Z,100856.06
2022-10-05T09:34:21.452Z,100843.34
2022-10-05T09:35:46.560Z,100850.28
2022-10-05T09:36:48.419Z,100844.75
2022-10-05T09:38:08.774Z,100841.34
2022-10-05T09:39:04.246Z,100844.53
2022-10-05T09:40:09.841Z,100851.09
2022-10-05T09:41:11.826Z,100855.59
2022-10-05T09:42:27.388Z,100841.97
2022-10-05T09:43:42.019Z,100844.72
2022-10-05T09:45:00.794Z,100844.97
2022-10-05T09:46:06.308Z,100846.47
2022-10-05T09:47:33.095Z,100839.31
2022-10-05T09:48:55.691Z,100847.97
2022-10-05T09:50:13.607Z,100846.28
2022-10-05T09:51:04.416Z,100837.88
2022-10-05T09:52:26.255Z,100832.41
2022-10-05T09:53:40.879Z,100830.09
2022-10-05T09:54:39.729Z,100830.13
2022-10-05T09:55:48.798Z,100833.69
2022-10-05T09:56:57.924Z,100826.75
2022-10-05T09:57:53.048Z,100829.91
2022-10-05T09:58:40.024Z,100825.69
2022-10-05T09:59:47.832Z,100832.84
2022-10-05T10:00:58.742Z,100826.53
2022-10-05T10:02:14.239Z,100827.78
2022-10-05T10:03:05.552Z,100832.41
2022-10-05T10:04:30.570Z,100830.94
2022-10-05T10:05:35.797Z,100830.72
2022-10-05T10:06:51.451Z,100828.22
2022-10-05T10:08:04.779Z,100816.63
2022-10-05T10:09:25.432Z,100829.44
2022-10-05T10:10:36.575Z,100824.56
2022-10-05T10:11:50.799Z,100823.25
2022-10-05T10:12:57.117Z,100824.31
2022-10-05T10:14:00.628Z,100827.84
2022-10-05T10:15:12.673Z,100826.94
2022-10-05T10:16:30.921Z,100819.28
2022-10-05T10:17:26.989Z,100823.25
2022-10-05T10:18:46.094Z,100821.13
2022-10-05T10:20:08.428Z,100820.84
2022-10-05T10:20:58.644Z,100823.56
2022-10-05T10:22:07.056Z,100825.25
2022-10-05T10:22:56.681Z,100823.75
2022-10-05T10:24:02.527Z,100818.22
2022-10-05T10:25:05.923Z,100818.88
2022-10-05T10:26:01.868Z,100813.50
2022-10-05T10:27:20.262Z,100814.03
2022-10-05T10:28:13.382Z,100815.41
2022-10-05T10:29:00.558Z,100818.53
2022-10-05T10:30:04.172Z,100805.91
2022-10-05T10:30:51.630Z,100818.06
2022-10-05T10:32:03.462Z,100809.84
2022-10-05T10:33:12.204Z,100814.41
2022-10-05T10:34:37.723Z,100815.34
2022-10-05T10:35:33.170Z,100816.81
2022-10-05T10:36:48.456Z,100818.00
2022-10-05T10:38:13.121Z,100823.03
2022-10-05T10:39:08.420Z,100819.06
2022-10-05T10:40:04.622Z,100818.09
2022-10-05T10:41:23.692Z,100823.19
2022-10-05T10:42:23.883Z,100824.94
2022-10-05T10:43:16.064Z,100829.38
2022-10-05T10:44:42.105Z,100834.25
2022-10-05T10:45:44.268Z,100822.19
2022-10-05T10:46:36.964Z,100830.25
2022-10-05T10:47:45.626Z,100831.03
2022-10-05T10:48:57.658Z,100831.81
2022-10-05T10:50:24.122Z,100833.09
2022-10-05T10:51:21.201Z,100832.88
2022-10-05T10:52:23.213Z,100831.19
2022-10-05T10:53:40.767Z,100825.97
2022-10-05T10:54:42.405Z,100835.56
2022-10-05T10:55:37.865Z,100832.97
2022-10-05T10:56:43.363Z,100835.91
2022-10-05T10:58:05.488Z,100829.53
2022-10-05T10:59:03.133Z,100841.13
2022-10-05T11:00:15.769Z,100845.06
2022-10-05T11:01:21.288Z,100840.75
2022-10-05T11:02:38.320Z,100841.31
2022-10-05T11:03:55.285Z,100838.38
2022-10-05T11:05:01.847Z,100839.56
2022-10-05T11:06:13.423Z,100837.22
2022-10-05T11:07:25.191Z,100834.47
2022-10-05T11:08:30.011Z,100835.72
2022-10-05T11:09:48.987Z,100832.56
2022-10-05T11:11:09.590Z,100829.13
2022-10-05T11:12:18.082Z,100824.41
2022-10-05T11:13:13.772Z,100832.94
2022-10-05T11:14:31.804Z,100820.81
2022-10-05T11:15:36.947Z,100822.72
2022-10-05T11:16:42.285Z,100830.44
2022-10-05T11:17:47.273Z,100823.37
2022-10-05T11:18:59.063Z,100826.13
2022-10-05T11:20:31.090Z,100820.41
2022-10-05T11:21:30.637Z,100831.91
2022-10-05T11:22:23.714Z,100822.16
2022-10-05T11:23:34.131Z,100819.41
2022-10-05T11:24:47.766Z,100813.25
2022-10-05T11:26:01.647Z,100824.38
2022-10-05T11:26:57.205Z,100813.91
2022-10-05T11:27:50.013Z,100811.56
2022-10-05T11:29:08.902Z,100800.66
2022-10-05T11:30:14.060Z,100811.47
2022-10-05T11:31:32.052Z,100807.66
2022-10-05T11:32:43.639Z,100806.06
2022-10-05T11:33:58.338Z,100802.38
2022-10-05T11:35:03.783Z,100801.28
2022-10-05T11:35:57.939Z,100802.72
2022-10-05T11:37:06.582Z,100801.94
2022-10-05T11:38:22.154Z,100803.69
2022-10-05T11:39:33.655Z,100804.19
2022-10-05T11:40:38.289Z,100800.34
2022-10-05T11:41:37.048Z,100800.22
2022-10-05T11:42:57.576Z,100794.44
2022-10-05T11:44:07.027Z,100796.91
2022-10-05T11:45:15.645Z,100802.50
2022-10-05T11:46:14.071Z,100797.91
2022-10-05T11:47:03.983Z,100789.47
2022-10-05T11:48:17.117Z,100785.31
2022-10-05T11:49:25.678Z,100786.53
2022-10-05T11:50:18.653Z,100791.22
2022-10-05T11:51:40.840Z,100790.50
2022-10-05T11:52:45.945Z,100790.41
2022-10-05T11:54:03.509Z,100790.31
2022-10-05T11:55:16.298Z,100793.31
2022-10-05T11:56:15.347Z,100786.66
2022-10-05T11:57:25.650Z,100795.88
2022-10-05T11:58:35.042Z,100798.75
2022-10-05T11:59:27.209Z,100804.25
2022-10-05T12:00:21.745Z,100794.50
2022-10-05T12:01:23.447Z,100792.75
2022-10-05T12:02:19.376Z,100789.09
2022-10-05T12:03:31.348Z,100792.69